createdAt,value
2019-02-25T00:00:39.488Z,66.37
2019-02-25T00:03:09.006Z,67.73
2019-02-25T00:05:38.352Z,68.27
2019-02-25T00:08:07.720Z,68.30
2019-02-25T00:10:37.087Z,67.06
2019-02-25T00:13:06.514Z,65.95
2019-02-25T00:15:35.946Z,65.97
2019-02-25T00:18:05.218Z,66.25
2019-02-25T00:20:34.500Z,67.79
2019-02-25T00:23:03.820Z,67.53
2019-02-25T00:25:33.468Z,66.63
2019-02-25T00:28:02.862Z,65.48
2019-02-25T00:30:32.156Z,65.95
2019-02-25T00:33:01.551Z,61.73
2019-02-25T00:35:30.874Z,62.39
2019-02-25T00:38:00.195Z,66.38
2019-02-25T00:40:29.505Z,66.79
2019-02-25T00:42:58.779Z,67.92
2019-02-25T00:45:28.085Z,62.42
2019-02-25T00:47:57.377Z,66.79
2019-02-25T00:50:26.691Z,66.39
2019-02-25T00:52:56.165Z,69.93
2019-02-25T00:55:25.466Z,70.97
2019-02-25T00:57:54.770Z,70.10
2019-02-25T01:00:25.805Z,70.93
2019-02-25T01:02:55.168Z,70.32
2019-02-25T01:05:25.377Z,70.14
2019-02-25T01:07:54.832Z,71.05
2019-02-25T01:10:24.191Z,68.72
2019-02-25T01:12:53.499Z,70.44
2019-02-25T01:15:22.841Z,70.18
2019-02-25T01:17:52.152Z,70.64
2019-02-25T01:20:21.519Z,70.22
2019-02-25T01:22:50.912Z,68.57
2019-02-25T01:25:20.245Z,69.06
2019-02-25T01:27:49.507Z,69.09
2019-02-25T01:30:20.919Z,65.56
2019-02-25T01:32:50.301Z,65.00
2019-02-25T01:35:19.681Z,59.67
2019-02-25T01:37:48.976Z,59.84
2019-02-25T01:40:18.339Z,57.78
2019-02-25T01:42:47.652Z,59.06
2019-02-25T01:45:19.170Z,59.64
2019-02-25T01:47:48.473Z,59.44
2019-02-25T01:50:18.449Z,59.43
2019-02-25T01:52:47.741Z,58.92
2019-02-25T01:55:17.376Z,59.29
2019-02-25T01:57:46.667Z,60.74
2019-02-25T02:00:18.447Z,61.97
2019-02-25T02:02:47.777Z,59.99
2019-02-25T02:05:17.824Z,59.84
2019-02-25T02:07:47.127Z,59.89
2019-02-25T02:10:18.267Z,61.79
2019-02-25T02:12:47.618Z,62.40
2019-02-25T02:15:21.161Z,61.18
2019-02-25T02:17:50.486Z,62.12
2019-02-25T02:20:19.983Z,62.28
2019-02-25T02:22:49.261Z,62.94
2019-02-25T02:25:18.568Z,63.03
2019-02-25T02:27:47.846Z,65.67
2019-02-25T02:30:22.181Z,66.30
2019-02-25T02:32:51.457Z,64.68
2019-02-25T02:35:20.918Z,65.04
2019-02-25T02:37:50.204Z,63.50
2019-02-25T02:40:19.491Z,62.51
2019-02-25T02:42:59.506Z,62.81
2019-02-25T02:45:31.883Z,64.53
2019-02-25T02:48:04.204Z,63.95
2019-02-25T02:50:33.521Z,63.49
2019-02-25T02:53:03.072Z,64.35
2019-02-25T02:55:32.413Z,65.56
2019-02-25T02:58:01.688Z,64.71
2019-02-25T03:00:31.064Z,64.42
2019-02-25T03:03:00.317Z,63.43
2019-02-25T03:05:29.622Z,64.93
2019-02-25T03:07:58.903Z,65.05
2019-02-25T03:10:28.211Z,66.58
2019-02-25T03:12:57.483Z,66.91
2019-02-25T03:15:26.779Z,63.39
2019-02-25T03:17:56.076Z,64.04
2019-02-25T03:20:25.507Z,60.22
2019-02-25T03:22:54.808Z,56.92
2019-02-25T03:25:24.101Z,55.15
2019-02-25T03:27:53.821Z,54.20
2019-02-25T03:30:23.175Z,54.21
2019-02-25T03:32:52.466Z,54.91
2019-02-25T03:35:21.734Z,59.12
2019-02-25T03:37:51.039Z,58.12
2019-02-25T03:40:24.534Z,59.31
2019-02-25T03:42:54.143Z,61.15
2019-02-25T03:45:23.511Z,64.06
2019-02-25T03:47:52.800Z,63.52
2019-02-25T03:50:22.146Z,64.37
2019-02-25T03:52:51.434Z,65.02
2019-02-25T03:55:21.703Z,62.71
2019-02-25T03:57:51.007Z,62.42
2019-02-25T04:00:25.459Z,61.48
2019-02-25T04:02:54.839Z,63.85
2019-02-25T04:05:24.097Z,62.50
2019-02-25T04:07:53.466Z,62.19
2019-02-25T04:10:22.830Z,63.12
2019-02-25T04:12:52.273Z,62.82
2019-02-25T04:15:23.301Z,64.76
2019-02-25T04:17:52.610Z,64.93
2019-02-25T04:20:21.908Z,65.32
2019-02-25T04:22:51.180Z,66.14
2019-02-25T04:25:20.486Z,66.78
2019-02-25T04:27:51.649Z,68.37
2019-02-25T04:30:20.943Z,67.78
2019-02-25T04:32:50.217Z,67.42
2019-02-25T04:35:19.510Z,69.35
2019-02-25T04:37:48.791Z,67.77
2019-02-25T04:40:18.089Z,68.20
2019-02-25T04:42:47.354Z,69.92
2019-02-25T04:45:18.697Z,68.86
2019-02-25T04:47:47.963Z,67.13
2019-02-25T04:50:17.266Z,67.13
2019-02-25T04:52:46.545Z,68.60
2019-02-25T04:55:16.550Z,71.08
2019-02-25T04:57:45.817Z,69.97
2019-02-25T05:00:17.355Z,71.26
2019-02-25T05:02:46.724Z,71.43
2019-02-25T05:05:16.033Z,72.54
2019-02-25T05:07:45.375Z,72.67
2019-02-25T05:10:16.898Z,73.58
2019-02-25T05:13:00.018Z,74.73
2019-02-25T05:15:30.777Z,76.35
2019-02-25T05:18:00.077Z,75.06
2019-02-25T05:20:29.370Z,75.72
2019-02-25T05:22:58.705Z,78.26
2019-02-25T05:25:27.981Z,78.33
2019-02-25T05:27:57.401Z,77.56
2019-02-25T05:30:26.790Z,77.53
2019-02-25T05:32:56.074Z,76.98
2019-02-25T05:35:25.366Z,78.78
2019-02-25T05:37:54.666Z,79.32
2019-02-25T05:40:23.936Z,80.16
2019-02-25T05:42:53.229Z,80.16
2019-02-25T05:45:22.509Z,80.11
2019-02-25T05:47:51.803Z,80.40
2019-02-25T05:50:22.229Z,81.75
2019-02-25T05:52:51.525Z,83.74
2019-02-25T05:55:20.802Z,83.94
2019-02-25T05:57:50.105Z,84.62
2019-02-25T06:00:22.672Z,83.84
2019-02-25T06:02:51.981Z,83.81
2019-02-25T06:05:21.266Z,84.64
2019-02-25T06:07:50.695Z,84.60
2019-02-25T06:10:20.057Z,84.18
2019-02-25T06:12:49.461Z,83.19
2019-02-25T06:15:20.162Z,82.65
2019-02-25T06:17:49.468Z,83.09
2019-02-25T06:20:19.118Z,82.21
2019-02-25T06:22:48.478Z,81.70
2019-02-25T06:25:18.088Z,81.45
2019-02-25T06:27:47.424Z,81.64
2019-02-25T06:30:23.667Z,81.87
2019-02-25T06:32:53.027Z,82.68
2019-02-25T06:35:22.680Z,83.46
2019-02-25T06:37:52.101Z,84.78
2019-02-25T06:40:21.920Z,84.81
2019-02-25T06:42:51.296Z,86.44
2019-02-25T06:45:26.287Z,83.80
2019-02-25T06:47:55.579Z,84.33
2019-02-25T06:50:24.896Z,84.92
2019-02-25T06:52:54.199Z,84.96
2019-02-25T06:55:23.503Z,85.22
2019-02-25T06:57:52.833Z,90.11
2019-02-25T07:00:23.488Z,90.00
2019-02-25T07:02:52.849Z,92.00
2019-02-25T07:05:23.792Z,86.31
2019-02-25T07:07:54.803Z,83.33
2019-02-25T07:10:29.004Z,80.30
2019-02-25T07:13:02.848Z,79.85
2019-02-25T07:15:33.805Z,74.61
2019-02-25T07:18:07.883Z,73.46
2019-02-25T07:20:38.829Z,68.47
2019-02-25T07:23:09.762Z,67.49
2019-02-25T07:25:40.696Z,64.59
2019-02-25T07:28:11.631Z,66.53
2019-02-25T07:30:58.563Z,70.36
2019-02-25T07:33:41.410Z,64.54
2019-02-25T07:36:14.881Z,66.43
2019-02-25T07:38:54.825Z,63.35
2019-02-25T07:41:28.596Z,61.81
2019-02-25T07:44:02.385Z,61.81
2019-02-25T07:46:33.334Z,60.89
2019-02-25T07:49:04.401Z,62.96
2019-02-25T07:51:35.344Z,59.99
2019-02-25T07:54:21.571Z,59.21
2019-02-25T07:56:58.229Z,57.27
2019-02-25T07:59:32.103Z,59.12
2019-02-25T08:02:05.706Z,57.19
2019-02-25T08:04:45.420Z,56.56
2019-02-25T08:07:34.438Z,56.31
2019-02-25T08:10:15.556Z,58.78
2019-02-25T08:12:52.402Z,57.86
2019-02-25T08:15:23.355Z,54.67
2019-02-25T08:17:54.306Z,55.09
2019-02-25T08:20:41.515Z,56.61
2019-02-25T08:23:15.173Z,56.58
2019-02-25T08:26:02.126Z,55.27
2019-02-25T08:28:42.077Z,53.89
2019-02-25T08:31:15.681Z,53.54
2019-02-25T08:33:55.565Z,53.93
2019-02-25T08:37:01.960Z,52.65
2019-02-25T08:39:35.516Z,50.11
2019-02-25T08:42:06.464Z,48.27
2019-02-25T08:44:40.454Z,45.11
2019-02-25T08:47:17.235Z,42.91
2019-02-25T08:49:50.708Z,42.59
2019-02-25T08:52:20.272Z,40.86
2019-02-25T08:54:49.586Z,40.19
2019-02-25T08:57:18.931Z,39.17
2019-02-25T08:59:48.317Z,39.91
2019-02-25T09:02:17.752Z,39.72
2019-02-25T09:04:49.158Z,40.08
2019-02-25T09:07:18.052Z,39.24
2019-02-25T09:09:47.359Z,37.54
2019-02-25T09:12:16.745Z,34.96
2019-02-25T09:14:46.049Z,32.90
2019-02-25T09:17:16.153Z,34.38
2019-02-25T09:19:45.720Z,31.66
2019-02-25T09:22:15.000Z,31.33
2019-02-25T09:24:44.314Z,32.86
2019-02-25T09:27:13.617Z,32.70
2019-02-25T09:29:44.845Z,31.54
2019-02-25T09:32:13.960Z,30.22
2019-02-25T09:34:43.269Z,32.00
2019-02-25T09:37:12.566Z,30.67
2019-02-25T09:39:41.838Z,31.17
2019-02-25T09:42:11.147Z,30.86
2019-02-25T09:44:40.414Z,30.91
2019-02-25T09:47:09.721Z,31.96
2019-02-25T09:49:39.073Z,33.70
2019-02-25T09:52:08.396Z,34.54
2019-02-25T09:54:37.714Z,34.53
2019-02-25T09:57:07.015Z,35.10
2019-02-25T09:59:36.310Z,33.24
2019-02-25T10:02:05.752Z,33.10
2019-02-25T10:04:35.201Z,31.55
2019-02-25T10:07:04.557Z,32.30
2019-02-25T10:09:33.833Z,29.03
2019-02-25T10:12:03.155Z,29.65
2019-02-25T10:14:32.472Z,30.85
2019-02-25T10:17:01.841Z,29.75
2019-02-25T10:19:31.122Z,30.40
2019-02-25T10:22:00.663Z,30.79
2019-02-25T10:24:29.952Z,29.61
2019-02-25T10:26:59.260Z,29.54
2019-02-25T10:29:28.738Z,29.63
2019-02-25T10:31:58.053Z,29.53
2019-02-25T10:34:27.375Z,29.99
2019-02-25T10:36:56.652Z,30.81
2019-02-25T10:39:25.965Z,28.97
2019-02-25T10:41:55.935Z,27.10
2019-02-25T10:44:26.227Z,26.40
2019-02-25T10:46:55.534Z,25.81
2019-02-25T10:49:26.663Z,24.68
2019-02-25T10:51:55.904Z,25.18
2019-02-25T10:54:25.517Z,25.55
2019-02-25T10:56:57.774Z,26.87
2019-02-25T10:59:26.823Z,27.32
2019-02-25T11:01:56.147Z,28.64
2019-02-25T11:04:26.281Z,29.34
2019-02-25T11:06:55.841Z,26.99
2019-02-25T11:09:35.986Z,26.20
2019-02-25T11:12:05.404Z,26.02
2019-02-25T11:14:35.958Z,25.62
2019-02-25T11:17:05.838Z,25.12
2019-02-25T11:19:35.154Z,24.33
2019-02-25T11:22:05.526Z,26.21
2019-02-25T11:24:35.866Z,26.86
2019-02-25T11:27:07.185Z,24.99
2019-02-25T11:29:37.986Z,25.35
2019-02-25T11:32:07.475Z,24.49
2019-02-25T11:34:37.693Z,24.00
2019-02-25T11:37:07.682Z,23.76
2019-02-25T11:39:37.266Z,25.10
2019-02-25T11:42:08.001Z,24.20
2019-02-25T11:44:37.729Z,25.32
2019-02-25T11:47:07.725Z,24.71
2019-02-25T11:49:37.038Z,24.34
2019-02-25T11:54:34.548Z,26.92
2019-02-25T11:57:03.924Z,27.23
2019-02-25T11:59:33.231Z,27.87
2019-02-25T12:02:02.584Z,26.07
2019-02-25T12:04:31.840Z,27.45
2019-02-25T12:07:01.154Z,29.24
2019-02-25T12:09:30.437Z,28.38
2019-02-25T12:11:59.734Z,26.70
2019-02-25T12:14:29.022Z,26.10
2019-02-25T12:16:58.353Z,25.54
2019-02-25T12:19:27.703Z,23.05
2019-02-25T12:21:57.007Z,23.03
2019-02-25T12:24:26.298Z,22.10
2019-02-25T12:26:55.582Z,22.56
2019-02-25T12:29:24.885Z,22.73
2019-02-25T12:31:54.171Z,21.41
2019-02-25T12:34:23.525Z,21.99
2019-02-25T12:36:52.856Z,23.95
2019-02-25T12:39:22.234Z,23.60
2019-02-25T12:41:51.538Z,22.18
2019-02-25T12:44:20.944Z,23.75
2019-02-25T12:46:50.229Z,22.60
2019-02-25T12:49:19.547Z,25.12
2019-02-25T12:51:48.819Z,27.05
2019-02-25T12:54:18.132Z,24.79
2019-02-25T12:56:47.423Z,23.02
2019-02-25T12:59:16.728Z,22.20
2019-02-25T13:01:46.080Z,23.45
2019-02-25T13:04:15.557Z,24.58
2019-02-25T13:06:44.835Z,23.40
2019-02-25T13:09:15.026Z,22.90
2019-02-25T13:11:44.302Z,22.18
2019-02-25T13:14:13.624Z,23.54
2019-02-25T13:16:43.114Z,24.24
2019-02-25T13:19:12.432Z,22.80
2019-02-25T13:21:41.713Z,27.56
2019-02-25T13:24:11.018Z,26.47
2019-02-25T13:26:40.296Z,24.17
2019-02-25T13:29:09.609Z,26.41
2019-02-25T13:31:38.880Z,23.34
2019-02-25T13:34:08.240Z,23.60
2019-02-25T13:36:37.562Z,25.06
2019-02-25T13:39:08.474Z,27.73
2019-02-25T13:41:37.782Z,28.33
2019-02-25T13:44:07.059Z,27.49
2019-02-25T13:46:36.380Z,26.90
2019-02-25T13:49:05.661Z,27.84
2019-02-25T13:51:34.974Z,29.36
2019-02-25T13:54:04.464Z,30.56
2019-02-25T13:56:34.798Z,30.96
2019-02-25T13:59:04.417Z,30.71
2019-02-25T14:01:34.121Z,30.09
2019-02-25T14:04:03.568Z,30.60
2019-02-25T14:06:33.220Z,30.38
2019-02-25T14:09:02.913Z,30.09
2019-02-25T14:11:32.291Z,30.36
2019-02-25T14:14:01.603Z,30.30
2019-02-25T14:16:31.350Z,30.71
2019-02-25T14:19:01.013Z,31.55
2019-02-25T14:21:31.738Z,31.37
2019-02-25T14:24:01.288Z,31.31
2019-02-25T14:26:30.600Z,31.25
2019-02-25T14:28:59.871Z,31.06
2019-02-25T14:31:29.975Z,31.40
2019-02-25T14:33:59.424Z,31.24
2019-02-25T14:36:29.499Z,31.83
2019-02-25T14:39:01.457Z,31.36
2019-02-25T14:41:30.179Z,34.78
2019-02-25T14:44:00.010Z,31.55
2019-02-25T14:46:29.356Z,31.58
2019-02-25T14:48:58.690Z,31.80
2019-02-25T14:51:28.050Z,31.47
2019-02-25T14:53:57.473Z,32.06
2019-02-25T14:56:27.156Z,31.40
2019-02-25T14:58:56.488Z,30.68
2019-02-25T15:01:27.617Z,32.02
2019-02-25T15:03:58.164Z,30.64
2019-02-25T15:06:30.273Z,30.80
2019-02-25T15:09:01.486Z,30.75
2019-02-25T15:11:30.874Z,30.38
2019-02-25T15:14:00.190Z,30.86
2019-02-25T15:16:29.786Z,30.33
2019-02-25T15:19:00.630Z,30.28
2019-02-25T15:21:30.606Z,30.48
2019-02-25T15:24:04.006Z,31.12
2019-02-25T15:26:31.575Z,31.00
2019-02-25T15:29:02.779Z,31.52
2019-02-25T15:31:32.332Z,30.65
2019-02-25T15:34:01.838Z,31.18
2019-02-25T15:36:31.195Z,31.84
2019-02-25T15:39:00.495Z,32.00
2019-02-25T15:41:29.840Z,32.14
2019-02-25T15:44:02.122Z,32.47
2019-02-25T15:46:31.898Z,32.03
2019-02-25T15:49:01.322Z,31.80
2019-02-25T15:51:34.305Z,31.87
2019-02-25T15:54:03.100Z,31.89
2019-02-25T15:56:32.453Z,31.72
2019-02-25T15:59:01.824Z,32.38
2019-02-25T16:01:31.170Z,32.94
2019-02-25T16:04:04.290Z,33.21
2019-02-25T16:06:33.533Z,32.69
2019-02-25T16:09:05.891Z,33.27
2019-02-25T16:11:36.654Z,34.03
2019-02-25T16:14:07.022Z,33.99
2019-02-25T16:16:36.791Z,34.16
2019-02-25T16:19:06.159Z,34.63
2019-02-25T16:21:35.795Z,33.89
2019-02-25T16:24:08.157Z,33.94
2019-02-25T16:26:36.881Z,34.23
2019-02-25T16:29:09.134Z,34.66
2019-02-25T16:31:39.079Z,35.96
2019-02-25T16:34:10.019Z,35.04
2019-02-25T16:36:39.498Z,34.64
2019-02-25T16:39:10.020Z,34.71
2019-02-25T16:41:41.642Z,34.46
2019-02-25T16:44:10.847Z,35.08
2019-02-25T16:46:41.766Z,34.66
2019-02-25T16:49:11.168Z,34.56
2019-02-25T16:51:40.598Z,34.92
2019-02-25T16:54:11.653Z,37.42
2019-02-25T16:56:41.641Z,37.94
2019-02-25T16:59:12.987Z,37.85
2019-02-25T17:01:42.179Z,38.96
2019-02-25T17:04:12.176Z,39.46
2019-02-25T17:06:42.963Z,39.62
2019-02-25T17:09:18.305Z,39.79
2019-02-25T17:11:48.154Z,41.88
2019-02-25T17:14:19.070Z,43.63
2019-02-25T17:16:48.539Z,43.52
2019-02-25T17:19:19.673Z,45.43
2019-02-25T17:21:49.297Z,45.22
2019-02-25T17:24:18.605Z,45.59
2019-02-25T17:26:48.002Z,48.01
2019-02-25T17:29:17.595Z,50.83
2019-02-25T17:31:46.902Z,50.62
2019-02-25T17:34:18.682Z,50.20
2019-02-25T17:36:49.869Z,50.58
2019-02-25T17:39:19.189Z,53.93
2019-02-25T17:41:48.856Z,53.81
2019-02-25T17:44:20.549Z,53.02
2019-02-25T17:46:49.448Z,52.68
2019-02-25T17:49:19.257Z,52.77
2019-02-25T17:51:49.573Z,54.50
2019-02-25T17:54:19.619Z,55.59
2019-02-25T17:56:49.723Z,55.90
2019-02-25T17:59:21.357Z,56.85
2019-02-25T18:01:51.391Z,56.32
2019-02-25T18:04:20.714Z,54.37
2019-02-25T18:06:50.012Z,53.40
2019-02-25T18:09:20.532Z,53.79
2019-02-25T18:11:50.448Z,55.34
2019-02-25T18:14:20.007Z,54.93
2019-02-25T18:16:51.092Z,56.40
2019-02-25T18:19:22.603Z,55.32
2019-02-25T18:21:51.492Z,56.12
2019-02-25T18:24:21.123Z,53.60
2019-02-25T18:26:50.486Z,55.08
2019-02-25T18:29:20.772Z,54.12
2019-02-25T18:31:51.572Z,53.41
2019-02-25T18:34:21.022Z,54.46
2019-02-25T18:36:51.622Z,54.10
2019-02-25T18:39:23.138Z,54.53
2019-02-25T18:41:54.789Z,55.44
2019-02-25T18:44:24.279Z,55.35
2019-02-25T18:46:53.932Z,55.82
2019-02-25T18:49:23.253Z,54.35
2019-02-25T18:51:52.605Z,55.50
2019-02-25T18:54:23.347Z,58.66
2019-02-25T18:56:53.768Z,61.13
2019-02-25T18:59:24.700Z,62.44
2019-02-25T19:01:54.161Z,62.84
2019-02-25T19:04:23.502Z,64.09
2019-02-25T19:06:53.017Z,63.28
2019-02-25T19:09:25.099Z,64.02
2019-02-25T19:11:56.168Z,64.67
2019-02-25T19:14:26.495Z,65.10
2019-02-25T19:16:57.695Z,65.67
2019-02-25T19:19:27.932Z,65.12
2019-02-25T19:21:57.438Z,66.42
2019-02-25T19:24:26.842Z,65.99
2019-02-25T19:26:56.221Z,65.74
2019-02-25T19:29:27.650Z,66.32
2019-02-25T19:32:00.635Z,65.78
2019-02-25T19:34:27.975Z,67.46
2019-02-25T19:37:00.308Z,68.07
2019-02-25T19:39:29.094Z,68.23
2019-02-25T19:42:00.551Z,67.44
2019-02-25T19:44:31.902Z,67.83
2019-02-25T19:47:01.195Z,69.46
2019-02-25T19:49:30.599Z,70.35
2019-02-25T19:52:00.123Z,71.01
2019-02-25T19:54:29.623Z,71.62
2019-02-25T19:56:59.019Z,73.16
2019-02-25T19:59:29.194Z,74.06
2019-02-25T20:01:59.544Z,76.74
2019-02-25T20:04:28.867Z,78.00
2019-02-25T20:07:00.323Z,77.41
2019-02-25T20:09:29.622Z,76.60
2019-02-25T20:12:01.310Z,76.29
2019-02-25T20:14:31.429Z,75.16
2019-02-25T20:17:02.665Z,77.08
2019-02-25T20:19:32.640Z,77.17
2019-02-25T20:22:01.936Z,76.69
2019-02-25T20:24:31.383Z,77.33
2019-02-25T20:27:02.396Z,79.32
2019-02-25T20:29:31.717Z,80.15
2019-02-25T20:32:00.990Z,78.83
2019-02-25T20:34:32.092Z,77.96
2019-02-25T20:37:03.855Z,78.00
2019-02-25T20:39:33.732Z,77.95
2019-02-25T20:42:03.999Z,78.69
2019-02-25T20:44:34.884Z,81.45
2019-02-25T20:47:04.504Z,81.45
2019-02-25T20:49:33.780Z,82.56
2019-02-25T20:52:03.080Z,82.98
2019-02-25T20:54:32.458Z,79.34
2019-02-25T20:57:01.782Z,80.73
2019-02-25T20:59:33.092Z,81.50
2019-02-25T21:02:02.271Z,83.88
2019-02-25T21:04:31.581Z,83.88
2019-02-25T21:07:02.165Z,85.30
2019-02-25T21:09:33.595Z,86.33
2019-02-25T21:12:02.859Z,85.21
2019-02-25T21:14:33.569Z,85.06
2019-02-25T21:17:03.236Z,85.95
2019-02-25T21:19:33.365Z,86.06
2019-02-25T21:22:04.519Z,85.17
2019-02-25T21:24:35.491Z,84.33
2019-02-25T21:27:06.407Z,82.70
2019-02-25T21:29:38.768Z,81.87
2019-02-25T21:32:07.736Z,81.87
2019-02-25T21:34:37.107Z,83.59
2019-02-25T21:37:06.399Z,84.17
2019-02-25T21:39:36.659Z,84.23
2019-02-25T21:42:10.672Z,84.94
2019-02-25T21:44:37.758Z,85.54
2019-02-25T21:47:07.149Z,86.07
2019-02-25T21:49:38.193Z,86.33
2019-02-25T21:52:08.410Z,86.41
2019-02-25T21:54:38.512Z,86.47
2019-02-25T21:57:09.615Z,87.62
2019-02-25T21:59:41.077Z,88.77
2019-02-25T22:02:09.847Z,89.70
2019-02-25T22:04:42.420Z,89.02
2019-02-25T22:07:10.119Z,88.34
2019-02-25T22:09:41.914Z,88.29
2019-02-25T22:12:10.455Z,88.11
2019-02-25T22:14:41.205Z,88.80
2019-02-25T22:17:10.737Z,88.49
2019-02-25T22:19:41.463Z,88.71
2019-02-25T22:22:11.102Z,88.52
2019-02-25T22:24:40.635Z,88.80
2019-02-25T22:27:11.910Z,89.86
2019-02-25T22:29:42.989Z,90.50
2019-02-25T22:32:12.328Z,89.84
2019-02-25T22:34:41.640Z,89.84
2019-02-25T22:37:14.548Z,90.06
2019-02-25T22:39:43.823Z,90.33
2019-02-25T22:42:13.847Z,91.05
2019-02-25T22:44:45.168Z,92.39
2019-02-25T22:47:15.953Z,93.91
2019-02-25T22:49:45.274Z,93.91
2019-02-25T22:52:14.541Z,92.97
2019-02-25T22:54:45.726Z,93.31
2019-02-25T22:57:16.740Z,93.83
2019-02-25T22:59:45.930Z,93.84
2019-02-25T23:02:15.296Z,93.95
2019-02-25T23:04:46.951Z,93.95
2019-02-25T23:07:17.785Z,93.96
2019-02-25T23:09:48.118Z,94.26
2019-02-25T23:12:19.744Z,94.19
2019-02-25T23:14:49.549Z,94.19
2019-02-25T23:17:18.831Z,94.60
2019-02-25T23:19:48.144Z,95.50
2019-02-25T23:22:17.424Z,95.50
2019-02-25T23:24:46.744Z,95.33
2019-02-25T23:27:16.024Z,96.06
2019-02-25T23:29:47.796Z,94.96
2019-02-25T23:32:17.471Z,94.96
2019-02-25T23:34:50.139Z,94.29
2019-02-25T23:37:19.815Z,94.57
2019-02-25T23:39:49.625Z,95.82
2019-02-25T23:42:18.898Z,96.25
2019-02-25T23:44:48.246Z,96.17
2019-02-25T23:47:17.539Z,96.89
2019-02-25T23:49:48.517Z,97.08
2019-02-25T23:52:18.491Z,97.09
2019-02-25T23:54:49.733Z,96.70
2019-02-25T23:57:19.847Z,96.70
2019-02-25T23:59:51.670Z,97.06
